createdAt,value
2023-05-09T00:00:41.180Z,1.47
2023-05-09T00:01:41.265Z,1.47
2023-05-09T00:02:41.395Z,1.45
2023-05-09T00:03:41.377Z,1.43
2023-05-09T00:04:41.481Z,1.48
2023-05-09T00:05:41.436Z,1.45
2023-05-09T00:06:41.472Z,1.51
2023-05-09T00:07:41.520Z,1.46
2023-05-09T00:08:41.590Z,1.46
2023-05-09T00:09:41.650Z,1.44
2023-05-09T00:10:41.656Z,1.44
2023-05-09T00:11:41.761Z,1.41
2023-05-09T00:12:41.903Z,1.46
2023-05-09T00:13:41.911Z,1.47
2023-05-09T00:14:41.918Z,1.48
2023-05-09T00:15:41.959Z,1.44
2023-05-09T00:16:42.043Z,1.42
2023-05-09T00:17:42.128Z,1.45
2023-05-09T00:18:42.255Z,1.41
2023-05-09T00:19:42.226Z,1.40
2023-05-09T00:20:42.288Z,1.40
2023-05-09T00:21:42.395Z,1.48
2023-05-09T00:22:42.409Z,1.49
2023-05-09T00:23:42.945Z,1.41
2023-05-09T00:24:42.525Z,1.48
2023-05-09T00:25:42.580Z,1.46
2023-05-09T00:26:42.614Z,1.39
2023-05-09T00:27:42.678Z,1.42
2023-05-09T00:28:42.863Z,1.45
2023-05-09T00:29:42.779Z,1.42
2023-05-09T00:30:42.877Z,1.48
2023-05-09T00:31:42.944Z,1.36
2023-05-09T00:32:42.968Z,1.41
2023-05-09T00:33:43.075Z,1.42
2023-05-09T00:34:43.052Z,1.37
2023-05-09T00:35:43.095Z,1.42
2023-05-09T00:36:43.161Z,1.41
2023-05-09T00:37:43.232Z,1.44
2023-05-09T00:38:43.266Z,1.40
2023-05-09T00:39:43.372Z,1.41
2023-05-09T00:40:43.437Z,1.37
2023-05-09T00:41:43.450Z,1.45
2023-05-09T00:42:43.478Z,1.43
2023-05-09T00:43:43.547Z,1.41
2023-05-09T00:44:43.695Z,1.36
2023-05-09T00:45:43.732Z,1.42
2023-05-09T00:46:43.740Z,1.42
2023-05-09T00:47:43.781Z,1.36
2023-05-09T00:48:43.851Z,1.35
2023-05-09T00:49:43.898Z,1.34
2023-05-09T00:50:44.003Z,1.39
2023-05-09T00:51:44.008Z,1.39
2023-05-09T00:52:44.073Z,1.36
2023-05-09T00:53:44.145Z,1.42
2023-05-09T00:54:44.200Z,1.41
2023-05-09T00:55:44.227Z,1.39
2023-05-09T00:56:44.295Z,1.39
2023-05-09T00:57:44.342Z,1.38
2023-05-09T00:58:44.399Z,1.40
2023-05-09T00:59:44.453Z,1.39
2023-05-09T01:00:44.602Z,1.43
2023-05-09T01:01:44.605Z,1.33
2023-05-09T01:02:44.824Z,1.35
2023-05-09T01:03:44.865Z,1.40
2023-05-09T01:04:44.785Z,1.38
2023-05-09T01:05:44.823Z,1.39
2023-05-09T01:06:44.904Z,1.35
2023-05-09T01:07:44.943Z,1.39
2023-05-09T01:08:44.999Z,1.35
2023-05-09T01:09:45.060Z,1.36
2023-05-09T01:10:45.120Z,1.38
2023-05-09T01:11:45.177Z,1.28
2023-05-09T01:12:45.246Z,1.35
2023-05-09T01:13:45.299Z,1.38
2023-05-09T01:14:45.363Z,1.40
2023-05-09T01:15:45.579Z,1.33
2023-05-09T01:16:45.637Z,1.38
2023-05-09T01:17:45.635Z,1.33
2023-05-09T01:18:45.645Z,1.34
2023-05-09T01:19:45.671Z,1.33
2023-05-09T01:20:45.755Z,1.36
2023-05-09T01:21:45.810Z,1.37
2023-05-09T01:22:45.867Z,1.30
2023-05-09T01:23:45.933Z,1.36
2023-05-09T01:24:45.982Z,1.32
2023-05-09T01:25:46.086Z,1.31
2023-05-09T01:26:46.103Z,1.32
2023-05-09T01:27:46.158Z,1.31
2023-05-09T01:28:46.229Z,1.34
2023-05-09T01:29:46.292Z,1.34
2023-05-09T01:30:46.329Z,1.30
2023-05-09T01:31:46.530Z,1.33
2023-05-09T01:32:46.607Z,1.36
2023-05-09T01:33:46.521Z,1.33
2023-05-09T01:34:46.625Z,1.33
2023-05-09T01:35:46.676Z,1.29
2023-05-09T01:36:46.697Z,1.31
2023-05-09T01:37:46.751Z,1.31
2023-05-09T01:38:46.819Z,1.35
2023-05-09T01:39:46.860Z,1.27
2023-05-09T01:40:46.939Z,1.32
2023-05-09T01:41:47.496Z,1.30
2023-05-09T01:42:47.057Z,1.32
2023-05-09T01:43:47.154Z,1.27
2023-05-09T01:44:47.197Z,1.32
2023-05-09T01:45:47.259Z,1.30
2023-05-09T01:46:47.316Z,1.32
2023-05-09T01:47:47.373Z,1.29
2023-05-09T01:48:47.495Z,1.27
2023-05-09T01:49:47.477Z,1.31
2023-05-09T01:50:47.554Z,1.32
2023-05-09T01:51:47.614Z,1.29
2023-05-09T01:52:47.655Z,1.30
2023-05-09T01:53:47.725Z,1.24
2023-05-09T01:54:47.799Z,1.28
2023-05-09T01:55:47.825Z,1.29
2023-05-09T01:56:47.896Z,1.30
2023-05-09T01:57:47.941Z,1.31
2023-05-09T01:58:48.002Z,1.29
2023-05-09T01:59:48.049Z,1.31
2023-05-09T02:00:48.184Z,1.26
2023-05-09T02:01:48.252Z,1.25
2023-05-09T02:02:48.410Z,1.26
2023-05-09T02:03:48.298Z,1.30
2023-05-09T02:04:48.440Z,1.22
2023-05-09T02:05:48.439Z,1.27
2023-05-09T02:06:48.497Z,1.27
2023-05-09T02:07:48.527Z,1.27
2023-05-09T02:08:48.599Z,1.28
2023-05-09T02:09:48.653Z,1.29
2023-05-09T02:10:48.743Z,1.27
2023-05-09T02:11:49.000Z,1.28
2023-05-09T02:12:48.903Z,1.27
2023-05-09T02:13:48.910Z,1.27
2023-05-09T02:14:48.958Z,1.28
2023-05-09T02:15:49.040Z,1.29
2023-05-09T02:16:49.182Z,1.24
2023-05-09T02:17:49.199Z,1.25
2023-05-09T02:18:49.193Z,1.25
2023-05-09T02:19:49.274Z,1.28
2023-05-09T02:20:49.438Z,1.28
2023-05-09T02:21:49.425Z,1.22
2023-05-09T02:22:49.443Z,1.23
2023-05-09T02:23:49.501Z,1.24
2023-05-09T02:24:49.551Z,1.27
2023-05-09T02:25:49.625Z,1.26
2023-05-09T02:26:49.676Z,1.28
2023-05-09T02:27:49.720Z,1.23
2023-05-09T02:28:49.791Z,1.21
2023-05-09T02:29:49.841Z,1.24
2023-05-09T02:30:49.907Z,1.25
2023-05-09T02:31:50.110Z,1.22
2023-05-09T02:32:50.069Z,1.22
2023-05-09T02:33:50.096Z,1.24
2023-05-09T02:34:50.150Z,1.26
2023-05-09T02:35:50.231Z,1.25
2023-05-09T02:36:50.369Z,1.23
2023-05-09T02:37:50.342Z,1.26
2023-05-09T02:38:50.414Z,1.26
2023-05-09T02:39:50.461Z,1.23
2023-05-09T02:40:52.456Z,1.18
2023-05-09T02:41:50.578Z,1.19
2023-05-09T02:42:50.632Z,1.23
2023-05-09T02:43:50.708Z,1.21
2023-05-09T02:44:50.782Z,1.22
2023-05-09T02:45:50.964Z,1.22
2023-05-09T02:46:50.861Z,1.19
2023-05-09T02:47:50.966Z,1.19
2023-05-09T02:48:50.984Z,1.25
2023-05-09T02:49:51.043Z,1.23
2023-05-09T02:50:51.097Z,1.22
2023-05-09T02:51:51.172Z,1.21
2023-05-09T02:52:51.321Z,1.21
2023-05-09T02:53:51.308Z,1.18
2023-05-09T02:54:51.346Z,1.21
2023-05-09T02:55:51.433Z,1.21
2023-05-09T02:56:51.490Z,1.20
2023-05-09T02:57:58.864Z,1.19
2023-05-09T02:58:52.557Z,1.19
2023-05-09T02:59:51.511Z,1.20
2023-05-09T03:00:51.508Z,1.20
2023-05-09T03:01:51.553Z,1.19
2023-05-09T03:02:51.601Z,1.18
2023-05-09T03:03:51.589Z,1.20
2023-05-09T03:04:51.481Z,1.20
2023-05-09T03:05:51.486Z,1.16
2023-05-09T03:06:51.564Z,1.22
2023-05-09T03:07:51.590Z,1.22
2023-05-09T03:08:51.724Z,1.21
2023-05-09T03:09:51.690Z,1.20
2023-05-09T03:10:51.796Z,1.19
2023-05-09T03:11:51.824Z,1.21
2023-05-09T03:12:51.923Z,1.16
2023-05-09T03:13:51.936Z,1.18
2023-05-09T03:14:51.998Z,1.19
2023-05-09T03:15:52.080Z,1.13
2023-05-09T03:16:52.082Z,1.19
2023-05-09T03:17:52.193Z,1.20
2023-05-09T03:18:52.224Z,1.20
2023-05-09T03:19:52.268Z,1.19
2023-05-09T03:20:52.322Z,1.14
2023-05-09T03:21:52.394Z,1.19
2023-05-09T03:22:52.456Z,1.18
2023-05-09T03:23:52.536Z,1.17
2023-05-09T03:24:52.677Z,1.18
2023-05-09T03:25:52.684Z,1.16
2023-05-09T03:26:52.696Z,1.16
2023-05-09T03:27:52.783Z,1.16
2023-05-09T03:28:52.833Z,1.13
2023-05-09T03:29:52.878Z,1.19
2023-05-09T03:30:52.986Z,1.16
2023-05-09T03:31:53.076Z,1.15
2023-05-09T03:32:53.083Z,1.19
2023-05-09T03:33:53.083Z,1.17
2023-05-09T03:34:53.152Z,1.14
2023-05-09T03:35:53.183Z,1.16
2023-05-09T03:36:53.240Z,1.16
2023-05-09T03:37:53.307Z,1.16
2023-05-09T03:38:53.397Z,1.16
2023-05-09T03:39:53.396Z,1.14
2023-05-09T03:40:53.543Z,1.16
2023-05-09T03:41:53.493Z,1.15
2023-05-09T03:42:53.560Z,1.16
2023-05-09T03:43:53.619Z,1.16
2023-05-09T03:44:53.697Z,1.16
2023-05-09T03:45:53.740Z,1.13
2023-05-09T03:46:53.794Z,1.16
2023-05-09T03:47:53.896Z,1.14
2023-05-09T03:48:53.882Z,1.11
2023-05-09T03:49:53.932Z,1.14
2023-05-09T03:50:54.031Z,1.15
2023-05-09T03:51:54.045Z,1.15
2023-05-09T03:52:54.108Z,1.13
2023-05-09T03:53:54.151Z,1.13
2023-05-09T03:54:54.211Z,1.14
2023-05-09T03:55:54.259Z,1.13
2023-05-09T03:56:54.389Z,1.13
2023-05-09T03:57:54.431Z,1.13
2023-05-09T03:58:54.430Z,1.14
2023-05-09T03:59:54.493Z,1.11
2023-05-09T04:00:54.533Z,1.15
2023-05-09T04:01:54.680Z,1.13
2023-05-09T04:02:54.721Z,1.14
2023-05-09T04:03:54.729Z,1.14
2023-05-09T04:04:54.765Z,1.10
2023-05-09T04:05:54.876Z,1.14
2023-05-09T04:06:54.869Z,1.11
2023-05-09T04:07:54.944Z,1.15
2023-05-09T04:08:54.991Z,1.12
2023-05-09T04:09:55.056Z,1.12
2023-05-09T04:10:55.106Z,1.12
2023-05-09T04:11:55.172Z,1.12
2023-05-09T04:12:55.413Z,1.11
2023-05-09T04:13:55.275Z,1.09
2023-05-09T04:14:55.375Z,1.12
2023-05-09T04:15:55.478Z,1.13
2023-05-09T04:16:55.481Z,1.13
2023-05-09T04:17:55.576Z,1.12
2023-05-09T04:18:55.620Z,1.07
2023-05-09T04:19:55.638Z,1.11
2023-05-09T04:20:55.715Z,1.11
2023-05-09T04:21:55.768Z,1.06
2023-05-09T04:22:55.846Z,1.12
2023-05-09T04:23:55.876Z,1.12
2023-05-09T04:24:55.939Z,1.11
2023-05-09T04:25:56.521Z,1.10
2023-05-09T04:26:56.072Z,1.10
2023-05-09T04:27:56.136Z,1.10
2023-05-09T04:28:56.256Z,1.12
2023-05-09T04:29:56.245Z,1.12
2023-05-09T04:30:56.348Z,1.08
2023-05-09T04:31:56.499Z,1.07
2023-05-09T04:32:56.466Z,1.10
2023-05-09T04:33:56.474Z,1.11
2023-05-09T04:34:56.528Z,1.11
2023-05-09T04:35:56.564Z,1.08
2023-05-09T04:36:56.618Z,1.10
2023-05-09T04:37:56.659Z,1.10
2023-05-09T04:38:56.710Z,1.10
2023-05-09T04:39:56.792Z,1.07
2023-05-09T04:40:56.831Z,1.05
2023-05-09T04:41:56.833Z,1.06
2023-05-09T04:42:56.905Z,1.10
2023-05-09T04:43:56.960Z,1.09
2023-05-09T04:44:57.083Z,1.04
2023-05-09T04:45:57.080Z,1.06
2023-05-09T04:46:57.144Z,1.09
2023-05-09T04:47:57.270Z,1.07
2023-05-09T04:48:57.224Z,1.09
2023-05-09T04:49:57.343Z,1.07
2023-05-09T04:50:57.310Z,1.09
2023-05-09T04:51:57.377Z,1.07
2023-05-09T04:52:57.431Z,1.08
2023-05-09T04:53:57.457Z,1.09
2023-05-09T04:54:57.530Z,1.07
2023-05-09T04:55:57.564Z,1.06
2023-05-09T04:57:09.827Z,1.07
2023-05-09T04:57:58.609Z,1.07
2023-05-09T04:58:57.560Z,1.07
2023-05-09T04:59:57.670Z,1.08
2023-05-09T05:00:57.624Z,1.05
2023-05-09T05:01:57.585Z,1.07
2023-05-09T05:02:57.650Z,1.07
2023-05-09T05:03:57.545Z,1.08
2023-05-09T05:05:10.170Z,1.04
2023-05-09T05:05:58.555Z,1.05
2023-05-09T05:06:57.528Z,1.05
2023-05-09T05:07:57.533Z,1.05
2023-05-09T05:08:57.506Z,1.06
2023-05-09T05:09:57.485Z,1.06
2023-05-09T05:10:57.524Z,1.05
2023-05-09T05:12:01.790Z,1.07
2023-05-09T05:12:58.497Z,1.07
2023-05-09T05:13:57.462Z,1.07
2023-05-09T05:14:57.495Z,1.07
2023-05-09T05:15:57.489Z,1.05
2023-05-09T05:16:57.534Z,1.06
2023-05-09T05:17:57.550Z,1.06
2023-05-09T05:18:57.443Z,1.06
2023-05-09T05:19:57.436Z,1.05
2023-05-09T05:20:57.407Z,1.07
2023-05-09T05:21:57.417Z,1.06
2023-05-09T05:22:58.103Z,1.05
2023-05-09T05:23:57.522Z,1.04
2023-05-09T05:24:57.559Z,1.04
2023-05-09T05:25:57.598Z,1.05
2023-05-09T05:26:57.654Z,1.05
2023-05-09T05:27:57.682Z,1.05
2023-05-09T05:28:57.759Z,1.03
2023-05-09T05:29:57.775Z,1.04
2023-05-09T05:30:57.817Z,1.02
2023-05-09T05:31:57.994Z,1.03
2023-05-09T05:32:58.068Z,1.02
2023-05-09T05:33:57.957Z,1.02
2023-05-09T05:34:58.037Z,1.05
2023-05-09T05:35:58.061Z,1.06
2023-05-09T05:36:58.064Z,1.09
2023-05-09T05:37:58.085Z,1.06
2023-05-09T05:38:58.113Z,1.12
2023-05-09T05:39:58.217Z,1.18
2023-05-09T05:40:58.242Z,1.20
2023-05-09T05:41:58.285Z,1.28
2023-05-09T05:42:58.558Z,1.34
2023-05-09T05:43:58.386Z,1.41
2023-05-09T05:44:58.518Z,1.47
2023-05-09T05:45:58.641Z,1.49
2023-05-09T05:46:58.605Z,1.51
2023-05-09T05:47:58.690Z,1.50
2023-05-09T05:48:58.770Z,1.46
2023-05-09T05:49:58.707Z,1.63
2023-05-09T05:50:58.775Z,1.84
2023-05-09T05:51:58.813Z,1.96
2023-05-09T05:52:58.825Z,2.04
2023-05-09T05:53:58.834Z,1.91
2023-05-09T05:54:58.848Z,1.98
2023-05-09T05:55:58.862Z,2.15
2023-05-09T05:56:58.887Z,2.25
2023-05-09T05:57:59.066Z,2.32
2023-05-09T05:58:58.936Z,2.42
2023-05-09T05:59:58.905Z,2.52
2023-05-09T06:00:58.909Z,2.65
2023-05-09T06:01:58.950Z,2.74
2023-05-09T06:02:59.166Z,2.76
2023-05-09T06:03:59.009Z,2.81
2023-05-09T06:04:58.986Z,3.01
2023-05-09T06:05:58.949Z,3.03
2023-05-09T06:06:58.957Z,3.08
2023-05-09T06:07:58.989Z,3.34
2023-05-09T06:08:58.984Z,3.38
2023-05-09T06:09:58.992Z,3.52
2023-05-09T06:10:59.003Z,3.59
2023-05-09T06:11:59.178Z,3.66
2023-05-09T06:12:59.135Z,3.73
2023-05-09T06:13:59.144Z,3.80
2023-05-09T06:14:59.195Z,3.72
2023-05-09T06:16:07.808Z,3.78
2023-05-09T06:17:00.313Z,3.79
2023-05-09T06:17:59.290Z,3.82
2023-05-09T06:18:59.227Z,3.83
2023-05-09T06:19:59.309Z,3.90
2023-05-09T06:20:59.298Z,4.08
2023-05-09T06:21:59.221Z,4.20
2023-05-09T06:22:59.220Z,4.64
2023-05-09T06:24:08.404Z,4.52
2023-05-09T06:25:00.184Z,4.53
2023-05-09T06:25:59.215Z,4.56
2023-05-09T06:26:59.174Z,4.66
2023-05-09T06:27:59.558Z,5.04
2023-05-09T06:28:59.222Z,5.00
2023-05-09T06:29:59.150Z,4.82
2023-05-09T06:30:59.180Z,4.42
2023-05-09T06:31:59.472Z,4.20
2023-05-09T06:32:59.217Z,4.04
2023-05-09T06:33:59.114Z,3.88
2023-05-09T06:34:59.178Z,4.17
2023-05-09T06:35:59.278Z,3.90
2023-05-09T06:36:59.375Z,3.98
2023-05-09T06:37:59.647Z,4.14
2023-05-09T06:38:59.565Z,4.22
2023-05-09T06:39:59.429Z,4.13
2023-05-09T06:40:59.497Z,4.03
2023-05-09T06:41:59.566Z,3.40
2023-05-09T06:42:59.610Z,3.34
2023-05-09T06:43:59.692Z,3.26
2023-05-09T06:44:59.815Z,3.03
2023-05-09T06:45:59.801Z,2.88
2023-05-09T06:46:59.825Z,2.68
2023-05-09T06:47:59.865Z,2.43
2023-05-09T06:48:59.855Z,2.31
2023-05-09T06:49:59.830Z,2.25
2023-05-09T06:50:59.843Z,2.23
2023-05-09T06:51:59.849Z,2.14
2023-05-09T06:52:59.916Z,2.01
2023-05-09T06:53:59.917Z,1.92
2023-05-09T06:54:59.854Z,1.89
2023-05-09T06:55:59.841Z,1.94
2023-05-09T06:57:00.045Z,1.86
2023-05-09T06:57:59.833Z,1.83
2023-05-09T06:58:59.881Z,1.87
2023-05-09T06:59:59.832Z,1.84
2023-05-09T07:00:59.840Z,1.81
2023-05-09T07:01:59.927Z,1.77
2023-05-09T07:02:59.861Z,1.76
2023-05-09T07:03:59.855Z,1.66
2023-05-09T07:04:59.930Z,1.69
2023-05-09T07:05:59.896Z,1.63
2023-05-09T07:06:59.884Z,1.61
2023-05-09T07:07:59.866Z,1.61
2023-05-09T07:09:00.060Z,1.56
2023-05-09T07:10:10.586Z,1.46
2023-05-09T07:11:00.874Z,1.46
2023-05-09T07:11:59.856Z,1.47
2023-05-09T07:12:59.967Z,1.45
2023-05-09T07:13:59.876Z,1.43
2023-05-09T07:14:59.835Z,1.40
2023-05-09T07:16:00.054Z,1.41
2023-05-09T07:17:13.840Z,1.39
2023-05-09T07:18:00.832Z,1.39
2023-05-09T07:18:59.804Z,1.39
2023-05-09T07:19:59.817Z,1.35
2023-05-09T07:20:59.778Z,1.36
2023-05-09T07:21:59.822Z,1.35
2023-05-09T07:22:59.823Z,1.30
2023-05-09T07:23:59.857Z,1.32
2023-05-09T07:24:59.856Z,1.29
2023-05-09T07:25:59.802Z,1.31
2023-05-09T07:26:59.748Z,1.35
2023-05-09T07:27:59.793Z,1.33
2023-05-09T07:28:59.747Z,1.45
2023-05-09T07:29:59.745Z,1.52
2023-05-09T07:31:00.606Z,1.68
2023-05-09T07:31:59.768Z,1.78
2023-05-09T07:32:59.791Z,1.86
2023-05-09T07:34:00.157Z,2.09
2023-05-09T07:34:59.770Z,2.04
2023-05-09T07:35:59.766Z,2.00
2023-05-09T07:36:59.681Z,1.98
2023-05-09T07:37:59.745Z,1.93
2023-05-09T07:39:00.147Z,1.80
2023-05-09T07:39:59.801Z,1.88
2023-05-09T07:40:59.908Z,1.64
2023-05-09T07:41:59.868Z,1.54
2023-05-09T07:42:59.904Z,1.47
2023-05-09T07:43:59.967Z,1.41
2023-05-09T07:44:59.920Z,1.43
2023-05-09T07:45:59.971Z,1.33
2023-05-09T07:47:00.054Z,1.24
2023-05-09T07:47:59.966Z,1.19
2023-05-09T07:48:59.990Z,1.10
2023-05-09T07:49:59.892Z,1.08
2023-05-09T07:50:59.942Z,1.00
2023-05-09T07:51:59.905Z,0.98
2023-05-09T07:52:59.892Z,1.03
2023-05-09T07:53:59.925Z,0.99
2023-05-09T07:54:59.925Z,0.97
2023-05-09T07:55:59.934Z,0.91
2023-05-09T07:57:00.020Z,0.90
2023-05-09T07:58:00.017Z,0.96
2023-05-09T07:59:00.616Z,1.01
2023-05-09T07:59:59.894Z,0.97
2023-05-09T08:00:59.874Z,1.05
2023-05-09T08:01:59.941Z,1.21
2023-05-09T08:03:00.170Z,1.18
2023-05-09T08:04:00.082Z,1.18
2023-05-09T08:05:00.111Z,1.13
2023-05-09T08:06:00.101Z,1.10
2023-05-09T08:07:00.068Z,1.09
2023-05-09T08:08:00.136Z,1.05
2023-05-09T08:09:00.225Z,1.01
2023-05-09T08:10:00.214Z,0.99
2023-05-09T08:11:00.251Z,0.99
2023-05-09T08:12:00.309Z,0.99
2023-05-09T08:13:00.491Z,0.96
2023-05-09T08:14:00.487Z,0.89
2023-05-09T08:15:00.534Z,0.90
2023-05-09T08:16:00.558Z,0.84
2023-05-09T08:17:00.605Z,0.89
2023-05-09T08:18:00.714Z,0.84
2023-05-09T08:19:00.723Z,0.82
2023-05-09T08:20:00.815Z,0.81
2023-05-09T08:21:00.924Z,0.80
2023-05-09T08:22:00.891Z,0.79
2023-05-09T08:23:00.942Z,0.80
2023-05-09T08:24:01.169Z,0.77
2023-05-09T08:25:01.074Z,0.76
2023-05-09T08:26:01.176Z,0.82
2023-05-09T08:27:01.176Z,0.93
2023-05-09T08:28:01.233Z,0.96
2023-05-09T08:29:01.742Z,0.83
2023-05-09T08:30:01.377Z,0.79
2023-05-09T08:31:01.439Z,0.74
2023-05-09T08:32:01.463Z,0.75
2023-05-09T08:33:01.557Z,0.72
2023-05-09T08:34:01.494Z,0.72
2023-05-09T08:35:01.563Z,0.71
2023-05-09T08:36:01.527Z,0.71
2023-05-09T08:37:01.555Z,0.63
2023-05-09T08:38:01.615Z,0.62
2023-05-09T08:39:01.672Z,0.61
2023-05-09T08:40:01.621Z,0.60
2023-05-09T08:41:01.558Z,0.58
2023-05-09T08:42:01.566Z,0.80
2023-05-09T08:43:01.575Z,1.00
2023-05-09T08:44:01.548Z,1.09
2023-05-09T08:45:01.681Z,1.11
2023-05-09T08:46:01.720Z,1.13
2023-05-09T08:47:01.786Z,1.12
2023-05-09T08:48:01.738Z,1.12
2023-05-09T08:49:01.792Z,1.12
2023-05-09T08:50:02.142Z,1.11
2023-05-09T08:51:01.804Z,1.13
2023-05-09T08:52:01.939Z,1.10
2023-05-09T08:53:01.925Z,1.10
2023-05-09T08:54:02.164Z,1.14
2023-05-09T08:55:02.022Z,1.14
2023-05-09T08:56:02.078Z,1.07
2023-05-09T08:57:02.137Z,1.02
2023-05-09T08:58:02.192Z,1.07
2023-05-09T08:59:02.642Z,1.00
2023-05-09T09:00:02.314Z,0.96
2023-05-09T09:01:02.433Z,0.95
2023-05-09T09:02:02.510Z,0.93
2023-05-09T09:03:02.546Z,0.92
2023-05-09T09:04:02.527Z,0.93
2023-05-09T09:05:02.653Z,0.91
2023-05-09T09:06:02.656Z,0.93
2023-05-09T09:07:02.685Z,0.94
2023-05-09T09:08:02.747Z,0.89
2023-05-09T09:09:02.847Z,0.96
2023-05-09T09:10:02.866Z,0.97
2023-05-09T09:11:02.920Z,1.02
2023-05-09T09:12:02.979Z,1.09
2023-05-09T09:13:03.066Z,1.00
2023-05-09T09:14:03.112Z,0.97
2023-05-09T09:15:03.172Z,0.96
2023-05-09T09:16:03.206Z,0.95
2023-05-09T09:17:03.326Z,0.95
2023-05-09T09:18:04.314Z,1.10
2023-05-09T09:19:03.535Z,1.05
2023-05-09T09:20:03.539Z,1.10
2023-05-09T09:21:03.751Z,1.15
2023-05-09T09:22:03.680Z,1.12
2023-05-09T09:23:03.670Z,1.06
2023-05-09T09:24:03.715Z,1.09
2023-05-09T09:25:03.775Z,1.00
2023-05-09T09:26:03.797Z,1.05
2023-05-09T09:27:03.869Z,1.08
2023-05-09T09:28:03.892Z,1.03
2023-05-09T09:29:03.933Z,1.06
2023-05-09T09:30:04.021Z,1.08
2023-05-09T09:31:04.020Z,1.05
2023-05-09T09:32:04.143Z,1.10
2023-05-09T09:33:04.245Z,1.05
2023-05-09T09:34:04.154Z,1.08
2023-05-09T09:35:04.174Z,1.13
2023-05-09T09:36:04.154Z,1.06
2023-05-09T09:37:04.225Z,0.90
2023-05-09T09:38:04.225Z,0.86
2023-05-09T09:39:04.292Z,0.83
2023-05-09T09:40:04.305Z,0.82
2023-05-09T09:41:04.386Z,0.73
2023-05-09T09:42:04.429Z,0.71
2023-05-09T09:43:04.490Z,0.71
2023-05-09T09:44:04.489Z,0.64
2023-05-09T09:45:04.564Z,0.65
2023-05-09T09:46:04.686Z,0.68
2023-05-09T09:47:04.646Z,0.63
2023-05-09T09:48:04.765Z,0.52
2023-05-09T09:49:04.859Z,0.55
2023-05-09T09:50:04.817Z,0.56
2023-05-09T09:51:04.895Z,0.51
2023-05-09T09:52:04.965Z,0.50
2023-05-09T09:53:05.167Z,0.50
2023-05-09T09:54:05.045Z,0.52
2023-05-09T09:55:05.120Z,0.50
2023-05-09T09:56:05.163Z,0.50
2023-05-09T09:57:05.218Z,0.50
2023-05-09T09:58:05.262Z,0.57
2023-05-09T09:59:05.345Z,0.49
2023-05-09T10:00:05.416Z,0.53
2023-05-09T10:01:05.514Z,0.61
2023-05-09T10:02:07.994Z,0.61
2023-05-09T10:03:05.682Z,0.52
2023-05-09T10:04:05.558Z,0.54
2023-05-09T10:05:05.548Z,0.57
2023-05-09T10:06:05.511Z,0.58
2023-05-09T10:07:05.476Z,0.58
2023-05-09T10:08:05.454Z,0.78
2023-05-09T10:09:05.499Z,0.64
2023-05-09T10:10:05.440Z,0.54
2023-05-09T10:11:05.464Z,0.57
2023-05-09T10:12:05.440Z,0.61
2023-05-09T10:13:05.440Z,0.65
2023-05-09T10:14:05.477Z,0.55
2023-05-09T10:15:05.428Z,0.52
2023-05-09T10:16:05.540Z,0.51
2023-05-09T10:17:05.740Z,0.51
2023-05-09T10:18:05.637Z,0.53
2023-05-09T10:19:05.496Z,0.52
2023-05-09T10:20:05.372Z,0.55
2023-05-09T10:21:05.635Z,0.50
2023-05-09T10:22:05.350Z,0.60
2023-05-09T10:23:05.359Z,0.63
2023-05-09T10:24:05.457Z,0.60
2023-05-09T10:25:05.335Z,0.63
2023-05-09T10:26:05.318Z,0.71
2023-05-09T10:27:05.377Z,0.84
2023-05-09T10:28:05.303Z,0.89
2023-05-09T10:29:05.380Z,1.12
2023-05-09T10:30:05.297Z,1.32
2023-05-09T10:31:06.490Z,1.42
2023-05-09T10:32:05.296Z,1.49
2023-05-09T10:33:05.333Z,1.55
2023-05-09T10:34:05.267Z,1.64
2023-05-09T10:35:05.299Z,1.73
2023-05-09T10:36:05.298Z,1.74
2023-05-09T10:37:05.314Z,1.75
2023-05-09T10:38:05.240Z,1.78
2023-05-09T10:39:05.231Z,1.71
2023-05-09T10:40:05.367Z,1.75
2023-05-09T10:41:05.210Z,1.75
2023-05-09T10:42:05.222Z,1.60
2023-05-09T10:43:05.220Z,1.68
2023-05-09T10:44:05.196Z,1.57
2023-05-09T10:45:05.253Z,1.60
2023-05-09T10:46:05.337Z,1.70
2023-05-09T10:47:05.269Z,1.71
2023-05-09T10:48:05.221Z,1.57
2023-05-09T10:49:05.193Z,1.40
2023-05-09T10:50:05.184Z,1.40
2023-05-09T10:51:05.162Z,1.38
2023-05-09T10:52:05.151Z,1.42
2023-05-09T10:53:05.144Z,1.44
2023-05-09T10:54:05.139Z,1.42
2023-05-09T10:55:05.125Z,1.49
2023-05-09T10:56:05.135Z,1.50
2023-05-09T10:57:05.090Z,1.32
2023-05-09T10:58:05.105Z,1.25
2023-05-09T10:59:05.095Z,1.38
2023-05-09T11:00:05.126Z,1.36
2023-05-09T11:01:05.077Z,1.08
2023-05-09T11:02:05.124Z,1.17
2023-05-09T11:03:05.183Z,1.09
2023-05-09T11:04:05.068Z,1.02
2023-05-09T11:05:05.144Z,1.15
2023-05-09T11:06:05.036Z,1.04
2023-05-09T11:07:05.036Z,0.89
2023-05-09T11:08:05.033Z,0.85
2023-05-09T11:09:05.092Z,0.77
2023-05-09T11:10:05.041Z,0.76
2023-05-09T11:11:05.129Z,0.69
2023-05-09T11:12:05.248Z,0.69
2023-05-09T11:13:05.226Z,0.65
2023-05-09T11:14:05.256Z,0.66
2023-05-09T11:15:05.328Z,0.64
2023-05-09T11:16:05.389Z,0.57
2023-05-09T11:17:05.394Z,0.53
2023-05-09T11:18:05.501Z,0.61
2023-05-09T11:19:05.481Z,0.58
2023-05-09T11:20:05.761Z,0.43
2023-05-09T11:21:05.602Z,0.50
2023-05-09T11:22:05.645Z,0.62
2023-05-09T11:23:05.730Z,0.58
2023-05-09T11:24:05.811Z,0.47
2023-05-09T11:25:05.952Z,0.55
2023-05-09T11:26:05.877Z,0.60
2023-05-09T11:27:05.942Z,0.53
2023-05-09T11:28:05.981Z,0.65
2023-05-09T11:29:06.045Z,0.70
2023-05-09T11:30:06.106Z,0.76
2023-05-09T11:31:06.264Z,0.72
2023-05-09T11:32:06.273Z,0.68
2023-05-09T11:33:06.281Z,0.50
2023-05-09T11:34:06.301Z,0.51
2023-05-09T11:35:06.366Z,0.52
2023-05-09T11:36:06.407Z,0.57
2023-05-09T11:37:06.450Z,0.57
2023-05-09T11:38:06.554Z,0.50
2023-05-09T11:39:06.660Z,0.52
2023-05-09T11:40:06.616Z,0.56
2023-05-09T11:41:06.744Z,0.51
2023-05-09T11:42:06.697Z,0.56
2023-05-09T11:43:06.765Z,0.62
2023-05-09T11:44:06.804Z,0.60
2023-05-09T11:45:06.850Z,0.64
2023-05-09T11:46:06.921Z,0.50
2023-05-09T11:47:06.955Z,0.52
2023-05-09T11:48:07.051Z,0.50
2023-05-09T11:49:07.024Z,0.50
2023-05-09T11:50:07.089Z,0.53
2023-05-09T11:51:07.124Z,0.60
2023-05-09T11:52:07.170Z,0.61
2023-05-09T11:53:07.214Z,0.55
2023-05-09T11:54:07.252Z,0.53
2023-05-09T11:55:07.358Z,0.53
2023-05-09T11:56:07.341Z,0.56
2023-05-09T11:57:07.464Z,0.50
2023-05-09T11:58:07.392Z,0.54
2023-05-09T11:59:07.481Z,0.57
2023-05-09T12:00:07.501Z,0.53
2023-05-09T12:01:08.459Z,0.45
2023-05-09T12:02:07.721Z,0.54
2023-05-09T12:03:07.698Z,0.52
2023-05-09T12:04:07.661Z,0.52
2023-05-09T12:05:07.695Z,0.52
2023-05-09T12:06:07.770Z,0.55
2023-05-09T12:07:07.778Z,0.58
2023-05-09T12:08:07.831Z,0.60
2023-05-09T12:09:07.883Z,0.50
2023-05-09T12:10:07.945Z,0.57
2023-05-09T12:11:07.942Z,0.50
2023-05-09T12:12:07.982Z,0.51
2023-05-09T12:13:08.198Z,0.59
2023-05-09T12:14:08.108Z,0.62
2023-05-09T12:15:08.262Z,0.60
2023-05-09T12:16:08.201Z,0.60
2023-05-09T12:17:08.186Z,0.56
2023-05-09T12:18:08.483Z,0.62
2023-05-09T12:19:08.309Z,0.34
2023-05-09T12:20:08.344Z,0.34
2023-05-09T12:21:08.387Z,0.34
2023-05-09T12:22:08.423Z,0.54
2023-05-09T12:23:08.492Z,0.75
2023-05-09T12:24:08.550Z,0.88
2023-05-09T12:25:08.606Z,0.50
2023-05-09T12:26:08.654Z,0.35
2023-05-09T12:27:08.694Z,0.43
2023-05-09T12:28:08.769Z,0.41
2023-05-09T12:29:08.860Z,0.34
2023-05-09T12:30:08.814Z,0.34
2023-05-09T12:31:08.867Z,0.60
2023-05-09T12:32:08.919Z,0.48
2023-05-09T12:33:09.048Z,0.59
2023-05-09T12:34:08.966Z,0.53
2023-05-09T12:35:09.051Z,0.71
2023-05-09T12:36:09.067Z,0.53
2023-05-09T12:37:09.139Z,0.64
2023-05-09T12:38:09.696Z,0.73
2023-05-09T12:39:09.225Z,0.92
2023-05-09T12:40:09.266Z,1.17
2023-05-09T12:41:21.937Z,1.31
2023-05-09T12:42:10.314Z,1.32
2023-05-09T12:43:09.301Z,1.40
2023-05-09T12:44:09.288Z,1.54
2023-05-09T12:45:09.483Z,1.77
2023-05-09T12:46:09.259Z,2.25
2023-05-09T12:47:09.377Z,2.40
2023-05-09T12:48:09.323Z,2.79
2023-05-09T12:49:09.278Z,3.38
2023-05-09T12:50:09.245Z,3.62
2023-05-09T12:51:10.207Z,4.24
2023-05-09T12:52:10.013Z,3.64
2023-05-09T12:53:09.228Z,4.13
2023-05-09T12:54:09.214Z,4.34
2023-05-09T12:55:09.237Z,4.05
2023-05-09T12:56:09.213Z,5.26
2023-05-09T12:57:09.204Z,6.24
2023-05-09T12:58:09.174Z,7.43
2023-05-09T12:59:09.179Z,9.81
2023-05-09T13:00:09.208Z,10.52
2023-05-09T13:01:09.270Z,12.51
2023-05-09T13:02:09.206Z,15.26
2023-05-09T13:03:09.281Z,17.70
2023-05-09T13:04:10.480Z,19.47
2023-05-09T13:05:09.145Z,21.39
2023-05-09T13:06:09.117Z,19.89
2023-05-09T13:07:09.125Z,14.63
2023-05-09T13:08:09.111Z,12.21
2023-05-09T13:09:09.169Z,11.37
2023-05-09T13:10:11.195Z,11.93
2023-05-09T13:12:10.223Z,11.68
2023-05-09T13:13:09.273Z,12.71
2023-05-09T13:14:09.178Z,13.21
2023-05-09T13:15:09.240Z,14.50
2023-05-09T13:16:10.668Z,17.35
2023-05-09T13:17:09.414Z,17.80
2023-05-09T13:18:09.212Z,21.14
2023-05-09T13:19:09.159Z,18.92